Appleby, South Dakota
Current Conditions -  °F | °C
As of 4:53 PM on Saturday 25 Oct 2014 (Local Time) from KATY Reporting Station
Clear Clear  
Wind Chill: 62°   Ceiling: Unl
Heat Index: 62°   Visibility: 10mi
Dew Point: 30°   Wind: 8mph
Humidity: 30%   Direction: 10°N
Pressure: 30.09"   Gusts: NA
Location:  44.9156°N, 97.1699°W
Report Text: KATY 252153Z AUTO 01007KT 10SM CLR 17/M01 A3009 RMK AO2 SLP193 T01671011 $
Loading
Personal Weather Stations






























Interactive Weather Map
Tropical Storm Tracking
New forecast layout! Learn more

10-Day Weather Forecast

Advertisements
Track Severe Weather on mobile